sensor_id;sensor_type;location;lat;lon;timestamp;temperature;humidity
37938;DHT22;23763;48.130;11.602;2022-08-25T00:01:18;19.00;99.90
37938;DHT22;23763;48.130;11.602;2022-08-25T00:03:45;19.00;99.90
37938;DHT22;23763;48.130;11.602;2022-08-25T00:06:12;19.00;99.90
37938;DHT22;23763;48.130;11.602;2022-08-25T00:08:38;19.00;99.90
37938;DHT22;23763;48.130;11.602;2022-08-25T00:11:09;19.00;99.90
37938;DHT22;23763;48.130;11.602;2022-08-25T00:13:41;18.90;99.90
37938;DHT22;23763;48.130;11.602;2022-08-25T00:16:13;18.90;99.90
37938;DHT22;23763;48.130;11.602;2022-08-25T00:18:41;18.90;99.90
37938;DHT22;23763;48.130;11.602;2022-08-25T00:21:07;18.90;99.90
37938;DHT22;23763;48.130;11.602;2022-08-25T00:23:33;18.80;99.90
37938;DHT22;23763;48.130;11.602;2022-08-25T00:26:00;18.80;99.90
37938;DHT22;23763;48.130;11.602;2022-08-25T00:28:26;18.80;99.90
37938;DHT22;23763;48.130;11.602;2022-08-25T00:30:53;18.90;99.90
37938;DHT22;23763;48.130;11.602;2022-08-25T00:33:19;18.80;99.90
37938;DHT22;23763;48.130;11.602;2022-08-25T00:35:45;18.80;99.90
37938;DHT22;23763;48.130;11.602;2022-08-25T00:38:11;18.70;99.90
37938;DHT22;23763;48.130;11.602;2022-08-25T00:40:39;18.70;99.90
37938;DHT22;23763;48.130;11.602;2022-08-25T00:43:06;18.70;99.90
37938;DHT22;23763;48.130;11.602;2022-08-25T00:45:34;18.70;99.90
37938;DHT22;23763;48.130;11.602;2022-08-25T00:48:00;18.60;99.90
37938;DHT22;23763;48.130;11.602;2022-08-25T00:50:28;18.60;99.90
37938;DHT22;23763;48.130;11.602;2022-08-25T00:52:57;18.60;99.90
37938;DHT22;23763;48.130;11.602;2022-08-25T00:55:28;18.60;99.90
37938;DHT22;23763;48.130;11.602;2022-08-25T00:57:59;18.50;99.90
37938;DHT22;23763;48.130;11.602;2022-08-25T01:00:30;18.50;99.90
37938;DHT22;23763;48.130;11.602;2022-08-25T01:02:57;18.50;99.90
37938;DHT22;23763;48.130;11.602;2022-08-25T01:05:24;18.50;99.90
37938;DHT22;23763;48.130;11.602;2022-08-25T01:07:51;18.40;99.90
37938;DHT22;23763;48.130;11.602;2022-08-25T01:10:19;18.50;99.90
37938;DHT22;23763;48.130;11.602;2022-08-25T01:12:45;18.50;99.90
37938;DHT22;23763;48.130;11.602;2022-08-25T01:15:12;18.40;99.90
37938;DHT22;23763;48.130;11.602;2022-08-25T01:17:50;18.40;99.90
37938;DHT22;23763;48.130;11.602;2022-08-25T01:20:18;18.40;99.90
37938;DHT22;23763;48.130;11.602;2022-08-25T01:22:45;18.30;99.90
37938;DHT22;23763;48.130;11.602;2022-08-25T01:28:07;18.30;99.90
37938;DHT22;23763;48.130;11.602;2022-08-25T01:30:34;18.30;99.90
37938;DHT22;23763;48.130;11.602;2022-08-25T01:33:08;18.20;99.90
37938;DHT22;23763;48.130;11.602;2022-08-25T01:35:36;18.30;99.90
37938;DHT22;23763;48.130;11.602;2022-08-25T01:38:04;18.20;99.90
37938;DHT22;23763;48.130;11.602;2022-08-25T01:40:30;18.20;99.90
37938;DHT22;23763;48.130;11.602;2022-08-25T01:45:32;18.20;99.90
37938;DHT22;23763;48.130;11.602;2022-08-25T01:47:58;18.20;99.90
37938;DHT22;23763;48.130;11.602;2022-08-25T01:50:24;18.20;99.90
37938;DHT22;23763;48.130;11.602;2022-08-25T01:52:55;18.10;99.90
37938;DHT22;23763;48.130;11.602;2022-08-25T01:55:23;18.10;99.90
37938;DHT22;23763;48.130;11.602;2022-08-25T01:57:49;18.10;99.90
37938;DHT22;23763;48.130;11.602;2022-08-25T02:00:16;18.10;99.90
37938;DHT22;23763;48.130;11.602;2022-08-25T02:02:43;18.10;99.90
37938;DHT22;23763;48.130;11.602;2022-08-25T02:05:10;18.00;99.90
37938;DHT22;23763;48.130;11.602;2022-08-25T02:07:36;18.00;99.90
37938;DHT22;23763;48.130;11.602;2022-08-25T02:10:04;18.00;99.90
37938;DHT22;23763;48.130;11.602;2022-08-25T02:12:31;18.00;99.90
37938;DHT22;23763;48.130;11.602;2022-08-25T02:15:00;18.00;99.90
37938;DHT22;23763;48.130;11.602;2022-08-25T02:17:29;17.90;99.90
37938;DHT22;23763;48.130;11.602;2022-08-25T02:19:54;17.90;99.90
37938;DHT22;23763;48.130;11.602;2022-08-25T02:22:22;17.90;99.90
37938;DHT22;23763;48.130;11.602;2022-08-25T02:24:48;17.80;99.90
37938;DHT22;23763;48.130;11.602;2022-08-25T02:27:14;17.80;99.90
37938;DHT22;23763;48.130;11.602;2022-08-25T02:29:40;17.80;99.90
37938;DHT22;23763;48.130;11.602;2022-08-25T02:32:06;17.80;99.90
37938;DHT22;23763;48.130;11.602;2022-08-25T02:34:33;17.70;99.90
37938;DHT22;23763;48.130;11.602;2022-08-25T02:36:59;17.70;99.90
37938;DHT22;23763;48.130;11.602;2022-08-25T02:39:25;17.70;99.90
37938;DHT22;23763;48.130;11.602;2022-08-25T02:41:51;17.70;99.90
37938;DHT22;23763;48.130;11.602;2022-08-25T02:44:16;17.60;99.90
37938;DHT22;23763;48.130;11.602;2022-08-25T02:46:42;17.60;99.90
37938;DHT22;23763;48.130;11.602;2022-08-25T02:49:08;17.50;99.90
37938;DHT22;23763;48.130;11.602;2022-08-25T02:51:35;17.60;99.90
37938;DHT22;23763;48.130;11.602;2022-08-25T02:54:02;17.50;99.90
37938;DHT22;23763;48.130;11.602;2022-08-25T02:56:29;17.50;99.90
37938;DHT22;23763;48.130;11.602;2022-08-25T02:58:55;17.50;99.90
37938;DHT22;23763;48.130;11.602;2022-08-25T03:01:21;17.50;99.90
37938;DHT22;23763;48.130;11.602;2022-08-25T03:03:49;17.40;99.90
37938;DHT22;23763;48.130;11.602;2022-08-25T03:06:20;17.40;99.90
37938;DHT22;23763;48.130;11.602;2022-08-25T03:08:47;17.40;99.90
37938;DHT22;23763;48.130;11.602;2022-08-25T03:11:13;17.40;99.90
37938;DHT22;23763;48.130;11.602;2022-08-25T03:13:39;17.40;99.90
37938;DHT22;23763;48.130;11.602;2022-08-25T03:16:06;17.40;99.90
37938;DHT22;23763;48.130;11.602;2022-08-25T03:18:33;17.40;99.90
37938;DHT22;23763;48.130;11.602;2022-08-25T03:20:58;17.50;99.90
37938;DHT22;23763;48.130;11.602;2022-08-25T03:23:24;17.40;99.90
37938;DHT22;23763;48.130;11.602;2022-08-25T03:25:53;17.50;99.90
37938;DHT22;23763;48.130;11.602;2022-08-25T03:28:37;17.40;99.90
37938;DHT22;23763;48.130;11.602;2022-08-25T03:31:03;17.40;99.90
37938;DHT22;23763;48.130;11.602;2022-08-25T03:33:30;17.40;99.90
37938;DHT22;23763;48.130;11.602;2022-08-25T03:35:57;17.40;99.90
37938;DHT22;23763;48.130;11.602;2022-08-25T03:38:23;17.40;99.90
37938;DHT22;23763;48.130;11.602;2022-08-25T03:40:50;17.30;99.90
37938;DHT22;23763;48.130;11.602;2022-08-25T03:43:16;17.30;99.90
37938;DHT22;23763;48.130;11.602;2022-08-25T03:45:43;17.30;99.90
37938;DHT22;23763;48.130;11.602;2022-08-25T03:48:09;17.30;99.90
37938;DHT22;23763;48.130;11.602;2022-08-25T03:50:35;17.30;99.90
37938;DHT22;23763;48.130;11.602;2022-08-25T03:53:01;17.20;99.90
37938;DHT22;23763;48.130;11.602;2022-08-25T03:55:27;17.20;99.90
37938;DHT22;23763;48.130;11.602;2022-08-25T03:57:53;17.30;99.90
37938;DHT22;23763;48.130;11.602;2022-08-25T04:00:20;17.20;99.90
37938;DHT22;23763;48.130;11.602;2022-08-25T04:02:46;17.10;99.90
37938;DHT22;23763;48.130;11.602;2022-08-25T04:05:12;17.10;99.90
37938;DHT22;23763;48.130;11.602;2022-08-25T04:07:38;17.10;99.90
37938;DHT22;23763;48.130;11.602;2022-08-25T04:10:05;17.10;99.90
37938;DHT22;23763;48.130;11.602;2022-08-25T04:12:31;17.10;99.90
37938;DHT22;23763;48.130;11.602;2022-08-25T04:14:57;17.10;99.90
37938;DHT22;23763;48.130;11.602;2022-08-25T04:17:23;17.10;99.90
37938;DHT22;23763;48.130;11.602;2022-08-25T04:19:49;17.10;99.90
37938;DHT22;23763;48.130;11.602;2022-08-25T04:22:15;17.10;99.90
37938;DHT22;23763;48.130;11.602;2022-08-25T04:24:41;17.00;99.90
37938;DHT22;23763;48.130;11.602;2022-08-25T04:27:07;17.00;99.90
37938;DHT22;23763;48.130;11.602;2022-08-25T04:29:33;17.00;99.90
37938;DHT22;23763;48.130;11.602;2022-08-25T04:31:59;17.10;99.90
37938;DHT22;23763;48.130;11.602;2022-08-25T04:34:25;17.10;99.90
37938;DHT22;23763;48.130;11.602;2022-08-25T04:36:51;17.00;99.90
37938;DHT22;23763;48.130;11.602;2022-08-25T04:39:18;17.10;99.90
37938;DHT22;23763;48.130;11.602;2022-08-25T04:41:48;17.10;99.90
37938;DHT22;23763;48.130;11.602;2022-08-25T04:44:14;17.10;99.90
37938;DHT22;23763;48.130;11.602;2022-08-25T04:46:40;17.20;99.90
37938;DHT22;23763;48.130;11.602;2022-08-25T04:49:06;17.20;99.90
37938;DHT22;23763;48.130;11.602;2022-08-25T04:51:38;17.20;99.90
37938;DHT22;23763;48.130;11.602;2022-08-25T04:54:13;17.20;99.90
37938;DHT22;23763;48.130;11.602;2022-08-25T04:56:46;17.20;99.90
37938;DHT22;23763;48.130;11.602;2022-08-25T04:59:14;17.30;99.90
37938;DHT22;23763;48.130;11.602;2022-08-25T05:01:40;17.40;99.90
37938;DHT22;23763;48.130;11.602;2022-08-25T05:04:09;17.40;99.90
37938;DHT22;23763;48.130;11.602;2022-08-25T05:06:36;17.40;99.90
37938;DHT22;23763;48.130;11.602;2022-08-25T05:09:03;17.40;99.90
37938;DHT22;23763;48.130;11.602;2022-08-25T05:11:29;17.50;99.90
37938;DHT22;23763;48.130;11.602;2022-08-25T05:13:56;17.40;99.90
37938;DHT22;23763;48.130;11.602;2022-08-25T05:16:23;17.30;99.90
37938;DHT22;23763;48.130;11.602;2022-08-25T05:18:50;17.40;99.90
37938;DHT22;23763;48.130;11.602;2022-08-25T05:21:19;17.30;99.90
37938;DHT22;23763;48.130;11.602;2022-08-25T05:23:46;17.30;99.90
37938;DHT22;23763;48.130;11.602;2022-08-25T05:26:20;17.30;99.90
37938;DHT22;23763;48.130;11.602;2022-08-25T05:28:48;17.40;99.90
37938;DHT22;23763;48.130;11.602;2022-08-25T05:31:14;17.50;99.90
37938;DHT22;23763;48.130;11.602;2022-08-25T05:33:41;17.60;99.90
37938;DHT22;23763;48.130;11.602;2022-08-25T05:36:08;17.60;99.90
37938;DHT22;23763;48.130;11.602;2022-08-25T05:38:35;17.60;99.90
37938;DHT22;23763;48.130;11.602;2022-08-25T05:41:03;17.60;99.90
37938;DHT22;23763;48.130;11.602;2022-08-25T05:43:29;17.60;99.90
37938;DHT22;23763;48.130;11.602;2022-08-25T05:45:56;17.60;99.90
37938;DHT22;23763;48.130;11.602;2022-08-25T05:48:23;17.60;99.90
37938;DHT22;23763;48.130;11.602;2022-08-25T05:50:57;17.60;99.90
37938;DHT22;23763;48.130;11.602;2022-08-25T05:53:25;17.60;99.90
37938;DHT22;23763;48.130;11.602;2022-08-25T05:55:52;17.60;99.90
37938;DHT22;23763;48.130;11.602;2022-08-25T05:58:19;17.70;99.90
37938;DHT22;23763;48.130;11.602;2022-08-25T06:00:45;17.90;99.90
37938;DHT22;23763;48.130;11.602;2022-08-25T06:03:11;18.00;99.90
37938;DHT22;23763;48.130;11.602;2022-08-25T06:05:37;18.10;99.90
37938;DHT22;23763;48.130;11.602;2022-08-25T06:08:04;18.20;99.90
37938;DHT22;23763;48.130;11.602;2022-08-25T06:10:29;18.20;99.90
37938;DHT22;23763;48.130;11.602;2022-08-25T06:12:55;18.20;99.90
37938;DHT22;23763;48.130;11.602;2022-08-25T06:15:23;18.30;99.90
37938;DHT22;23763;48.130;11.602;2022-08-25T06:17:50;18.40;99.90
37938;DHT22;23763;48.130;11.602;2022-08-25T06:20:18;18.40;99.90
37938;DHT22;23763;48.130;11.602;2022-08-25T06:22:44;18.40;99.90
37938;DHT22;23763;48.130;11.602;2022-08-25T06:25:12;18.40;99.90
37938;DHT22;23763;48.130;11.602;2022-08-25T06:27:38;18.50;99.90
37938;DHT22;23763;48.130;11.602;2022-08-25T06:30:06;18.60;99.90
37938;DHT22;23763;48.130;11.602;2022-08-25T06:32:34;18.60;99.90
37938;DHT22;23763;48.130;11.602;2022-08-25T06:35:05;18.80;99.90
37938;DHT22;23763;48.130;11.602;2022-08-25T06:37:31;18.80;99.90
37938;DHT22;23763;48.130;11.602;2022-08-25T06:39:57;19.00;99.90
37938;DHT22;23763;48.130;11.602;2022-08-25T06:42:22;19.00;99.90
37938;DHT22;23763;48.130;11.602;2022-08-25T06:44:48;19.20;99.90
37938;DHT22;23763;48.130;11.602;2022-08-25T06:47:15;19.30;99.90
37938;DHT22;23763;48.130;11.602;2022-08-25T06:49:44;19.20;99.90
37938;DHT22;23763;48.130;11.602;2022-08-25T06:52:11;19.30;99.90
37938;DHT22;23763;48.130;11.602;2022-08-25T06:54:37;19.30;99.90
37938;DHT22;23763;48.130;11.602;2022-08-25T06:57:03;19.40;99.90
37938;DHT22;23763;48.130;11.602;2022-08-25T06:59:29;19.50;99.90
37938;DHT22;23763;48.130;11.602;2022-08-25T07:01:55;19.60;99.90
37938;DHT22;23763;48.130;11.602;2022-08-25T07:04:24;19.60;99.90
37938;DHT22;23763;48.130;11.602;2022-08-25T07:06:55;19.70;99.90
37938;DHT22;23763;48.130;11.602;2022-08-25T07:09:24;19.70;99.90
37938;DHT22;23763;48.130;11.602;2022-08-25T07:11:50;19.80;99.90
37938;DHT22;23763;48.130;11.602;2022-08-25T07:14:19;19.90;99.90
37938;DHT22;23763;48.130;11.602;2022-08-25T07:16:45;19.90;99.90
37938;DHT22;23763;48.130;11.602;2022-08-25T07:19:12;20.00;99.90
37938;DHT22;23763;48.130;11.602;2022-08-25T07:21:41;20.10;99.90
37938;DHT22;23763;48.130;11.602;2022-08-25T07:24:09;20.10;99.90
37938;DHT22;23763;48.130;11.602;2022-08-25T07:26:37;20.10;99.90
37938;DHT22;23763;48.130;11.602;2022-08-25T07:29:06;20.20;99.90
37938;DHT22;23763;48.130;11.602;2022-08-25T07:31:32;20.30;99.90
37938;DHT22;23763;48.130;11.602;2022-08-25T07:33:58;20.40;99.90
37938;DHT22;23763;48.130;11.602;2022-08-25T07:36:43;20.60;99.90
37938;DHT22;23763;48.130;11.602;2022-08-25T07:39:11;20.80;99.90
37938;DHT22;23763;48.130;11.602;2022-08-25T07:41:40;20.90;99.90
37938;DHT22;23763;48.130;11.602;2022-08-25T07:44:07;21.00;99.90
37938;DHT22;23763;48.130;11.602;2022-08-25T07:46:34;21.00;99.90
37938;DHT22;23763;48.130;11.602;2022-08-25T07:49:00;21.10;99.90
37938;DHT22;23763;48.130;11.602;2022-08-25T07:51:26;21.10;99.90
37938;DHT22;23763;48.130;11.602;2022-08-25T07:53:51;21.20;99.90
37938;DHT22;23763;48.130;11.602;2022-08-25T07:56:17;21.30;99.90
37938;DHT22;23763;48.130;11.602;2022-08-25T07:58:45;21.30;99.90
37938;DHT22;23763;48.130;11.602;2022-08-25T08:01:20;21.40;99.90
37938;DHT22;23763;48.130;11.602;2022-08-25T08:03:47;21.50;99.90
37938;DHT22;23763;48.130;11.602;2022-08-25T08:06:15;21.70;99.90
37938;DHT22;23763;48.130;11.602;2022-08-25T08:08:43;21.80;99.90
37938;DHT22;23763;48.130;11.602;2022-08-25T08:11:22;22.00;99.90
37938;DHT22;23763;48.130;11.602;2022-08-25T08:13:48;22.30;99.90
37938;DHT22;23763;48.130;11.602;2022-08-25T08:16:16;22.60;99.90
37938;DHT22;23763;48.130;11.602;2022-08-25T08:18:44;23.30;99.90
37938;DHT22;23763;48.130;11.602;2022-08-25T08:21:18;24.40;99.90
37938;DHT22;23763;48.130;11.602;2022-08-25T08:23:45;26.60;99.90
37938;DHT22;23763;48.130;11.602;2022-08-25T08:26:12;27.90;99.90
37938;DHT22;23763;48.130;11.602;2022-08-25T08:28:38;29.80;99.90
37938;DHT22;23763;48.130;11.602;2022-08-25T08:31:04;31.70;95.80
37938;DHT22;23763;48.130;11.602;2022-08-25T08:33:30;32.80;92.00
37938;DHT22;23763;48.130;11.602;2022-08-25T08:36:02;34.70;85.60
37938;DHT22;23763;48.130;11.602;2022-08-25T08:38:28;35.50;79.50
37938;DHT22;23763;48.130;11.602;2022-08-25T08:43:59;35.50;73.70
37938;DHT22;23763;48.130;11.602;2022-08-25T08:46:58;34.50;75.10
37938;DHT22;23763;48.130;11.602;2022-08-25T08:49:38;33.80;76.00
37938;DHT22;23763;48.130;11.602;2022-08-25T08:52:06;32.90;77.60
37938;DHT22;23763;48.130;11.602;2022-08-25T08:54:36;32.10;80.00
37938;DHT22;23763;48.130;11.602;2022-08-25T08:57:11;31.70;82.30
37938;DHT22;23763;48.130;11.602;2022-08-25T08:59:48;31.20;83.80
37938;DHT22;23763;48.130;11.602;2022-08-25T09:02:37;30.30;85.20
37938;DHT22;23763;48.130;11.602;2022-08-25T09:05:11;29.50;88.20
37938;DHT22;23763;48.130;11.602;2022-08-25T09:07:44;29.10;90.10
37938;DHT22;23763;48.130;11.602;2022-08-25T09:10:13;28.90;90.10
37938;DHT22;23763;48.130;11.602;2022-08-25T09:15:37;27.80;91.20
37938;DHT22;23763;48.130;11.602;2022-08-25T09:21:15;27.70;91.90
37938;DHT22;23763;48.130;11.602;2022-08-25T09:24:01;27.70;92.10
37938;DHT22;23763;48.130;11.602;2022-08-25T09:26:49;27.50;92.40
37938;DHT22;23763;48.130;11.602;2022-08-25T09:29:22;27.00;92.90
37938;DHT22;23763;48.130;11.602;2022-08-25T09:31:49;26.60;93.90
37938;DHT22;23763;48.130;11.602;2022-08-25T09:34:21;26.80;94.80
37938;DHT22;23763;48.130;11.602;2022-08-25T09:36:47;26.60;95.50
37938;DHT22;23763;48.130;11.602;2022-08-25T09:39:15;26.60;95.80
37938;DHT22;23763;48.130;11.602;2022-08-25T09:41:54;26.60;95.60
37938;DHT22;23763;48.130;11.602;2022-08-25T09:44:39;26.60;96.00
37938;DHT22;23763;48.130;11.602;2022-08-25T09:49:57;26.50;96.00
37938;DHT22;23763;48.130;11.602;2022-08-25T09:54:55;26.60;95.90
37938;DHT22;23763;48.130;11.602;2022-08-25T09:57:45;26.70;95.90
37938;DHT22;23763;48.130;11.602;2022-08-25T10:00:30;26.70;95.20
37938;DHT22;23763;48.130;11.602;2022-08-25T10:03:20;26.80;94.90
37938;DHT22;23763;48.130;11.602;2022-08-25T10:08:39;26.60;95.30
37938;DHT22;23763;48.130;11.602;2022-08-25T10:11:09;26.60;96.20
37938;DHT22;23763;48.130;11.602;2022-08-25T10:13:41;26.90;95.80
37938;DHT22;23763;48.130;11.602;2022-08-25T10:16:12;27.00;95.00
37938;DHT22;23763;48.130;11.602;2022-08-25T10:18:44;27.10;95.00
37938;DHT22;23763;48.130;11.602;2022-08-25T10:21:14;27.20;94.90
37938;DHT22;23763;48.130;11.602;2022-08-25T10:23:47;27.30;95.20
37938;DHT22;23763;48.130;11.602;2022-08-25T10:34:53;27.30;94.50
37938;DHT22;23763;48.130;11.602;2022-08-25T10:37:38;27.40;94.60
37938;DHT22;23763;48.130;11.602;2022-08-25T10:42:48;27.70;94.00
37938;DHT22;23763;48.130;11.602;2022-08-25T10:45:26;27.70;94.10
37938;DHT22;23763;48.130;11.602;2022-08-25T10:48:20;27.60;94.00
37938;DHT22;23763;48.130;11.602;2022-08-25T10:56:14;27.40;94.30
37938;DHT22;23763;48.130;11.602;2022-08-25T11:07:02;27.00;93.10
37938;DHT22;23763;48.130;11.602;2022-08-25T11:09:36;27.00;93.30
37938;DHT22;23763;48.130;11.602;2022-08-25T11:12:09;26.70;93.40
37938;DHT22;23763;48.130;11.602;2022-08-25T11:14:45;26.90;93.80
37938;DHT22;23763;48.130;11.602;2022-08-25T11:17:16;27.00;93.60
37938;DHT22;23763;48.130;11.602;2022-08-25T11:19:56;26.80;93.60
37938;DHT22;23763;48.130;11.602;2022-08-25T11:25:22;27.10;93.50
37938;DHT22;23763;48.130;11.602;2022-08-25T11:30:35;27.50;93.50
37938;DHT22;23763;48.130;11.602;2022-08-25T11:33:03;27.90;92.70
37938;DHT22;23763;48.130;11.602;2022-08-25T11:55:15;27.90;94.00
37938;DHT22;23763;48.130;11.602;2022-08-25T11:57:43;27.90;93.00
37938;DHT22;23763;48.130;11.602;2022-08-25T12:02:48;27.70;93.70
37938;DHT22;23763;48.130;11.602;2022-08-25T12:13:49;28.20;91.90
37938;DHT22;23763;48.130;11.602;2022-08-25T12:21:51;28.30;91.80
37938;DHT22;23763;48.130;11.602;2022-08-25T12:24:21;28.30;92.10
37938;DHT22;23763;48.130;11.602;2022-08-25T12:26:57;28.20;92.20
37938;DHT22;23763;48.130;11.602;2022-08-25T12:29:37;28.10;92.70
37938;DHT22;23763;48.130;11.602;2022-08-25T12:40:38;27.90;92.00
37938;DHT22;23763;48.130;11.602;2022-08-25T12:43:33;27.90;92.00
37938;DHT22;23763;48.130;11.602;2022-08-25T12:51:53;27.70;92.60
37938;DHT22;23763;48.130;11.602;2022-08-25T12:56:59;27.80;93.10
37938;DHT22;23763;48.130;11.602;2022-08-25T13:02:30;27.60;93.30
37938;DHT22;23763;48.130;11.602;2022-08-25T13:16:03;27.30;93.40
37938;DHT22;23763;48.130;11.602;2022-08-25T13:18:34;27.30;93.40
37938;DHT22;23763;48.130;11.602;2022-08-25T13:21:28;27.40;93.60
37938;DHT22;23763;48.130;11.602;2022-08-25T13:23:57;27.40;93.30
37938;DHT22;23763;48.130;11.602;2022-08-25T13:26:38;27.50;93.30
37938;DHT22;23763;48.130;11.602;2022-08-25T13:31:34;27.30;93.00
37938;DHT22;23763;48.130;11.602;2022-08-25T13:34:07;27.30;93.00
37938;DHT22;23763;48.130;11.602;2022-08-25T13:36:46;27.40;92.70
37938;DHT22;23763;48.130;11.602;2022-08-25T13:39:32;27.40;92.30
37938;DHT22;23763;48.130;11.602;2022-08-25T13:41:59;27.60;93.00
37938;DHT22;23763;48.130;11.602;2022-08-25T13:44:30;27.70;93.00
37938;DHT22;23763;48.130;11.602;2022-08-25T13:47:31;27.80;93.10
37938;DHT22;23763;48.130;11.602;2022-08-25T13:52:39;27.90;92.60
37938;DHT22;23763;48.130;11.602;2022-08-25T13:55:05;28.00;92.70
37938;DHT22;23763;48.130;11.602;2022-08-25T13:57:32;27.90;92.30
37938;DHT22;23763;48.130;11.602;2022-08-25T14:00:07;27.90;92.20
37938;DHT22;23763;48.130;11.602;2022-08-25T14:02:47;28.00;92.40
37938;DHT22;23763;48.130;11.602;2022-08-25T14:05:16;28.00;92.20
37938;DHT22;23763;48.130;11.602;2022-08-25T14:07:54;28.20;91.80
37938;DHT22;23763;48.130;11.602;2022-08-25T14:15:37;28.30;91.60
37938;DHT22;23763;48.130;11.602;2022-08-25T14:18:08;28.10;91.80
37938;DHT22;23763;48.130;11.602;2022-08-25T14:20:36;28.10;92.00
37938;DHT22;23763;48.130;11.602;2022-08-25T14:23:08;28.20;91.80
37938;DHT22;23763;48.130;11.602;2022-08-25T14:25:38;28.30;91.50
37938;DHT22;23763;48.130;11.602;2022-08-25T14:28:07;28.40;91.30
37938;DHT22;23763;48.130;11.602;2022-08-25T14:30:38;28.40;91.30
37938;DHT22;23763;48.130;11.602;2022-08-25T14:33:04;28.70;91.00
37938;DHT22;23763;48.130;11.602;2022-08-25T14:35:30;28.80;90.80
37938;DHT22;23763;48.130;11.602;2022-08-25T14:37:56;28.80;90.60
37938;DHT22;23763;48.130;11.602;2022-08-25T14:40:22;28.80;90.60
37938;DHT22;23763;48.130;11.602;2022-08-25T14:42:48;28.80;90.90
37938;DHT22;23763;48.130;11.602;2022-08-25T14:45:15;28.80;91.00
37938;DHT22;23763;48.130;11.602;2022-08-25T14:47:43;28.90;90.80
37938;DHT22;23763;48.130;11.602;2022-08-25T14:50:10;28.60;90.90
37938;DHT22;23763;48.130;11.602;2022-08-25T14:52:36;28.40;91.20
37938;DHT22;23763;48.130;11.602;2022-08-25T14:55:02;28.10;91.30
37938;DHT22;23763;48.130;11.602;2022-08-25T14:57:28;28.00;91.80
37938;DHT22;23763;48.130;11.602;2022-08-25T14:59:53;28.00;91.70
37938;DHT22;23763;48.130;11.602;2022-08-25T15:02:22;27.80;91.70
37938;DHT22;23763;48.130;11.602;2022-08-25T15:05:07;27.90;91.80
37938;DHT22;23763;48.130;11.602;2022-08-25T15:07:36;28.00;92.10
37938;DHT22;23763;48.130;11.602;2022-08-25T15:10:22;28.10;92.50
37938;DHT22;23763;48.130;11.602;2022-08-25T15:12:48;28.10;91.90
37938;DHT22;23763;48.130;11.602;2022-08-25T15:15:15;28.00;92.20
37938;DHT22;23763;48.130;11.602;2022-08-25T15:17:43;27.90;92.10
37938;DHT22;23763;48.130;11.602;2022-08-25T15:20:09;27.90;92.20
37938;DHT22;23763;48.130;11.602;2022-08-25T15:22:35;27.90;92.30
37938;DHT22;23763;48.130;11.602;2022-08-25T15:25:01;27.90;92.30
37938;DHT22;23763;48.130;11.602;2022-08-25T15:27:26;27.80;92.30
37938;DHT22;23763;48.130;11.602;2022-08-25T15:29:52;27.60;92.40
37938;DHT22;23763;48.130;11.602;2022-08-25T15:32:18;27.40;92.80
37938;DHT22;23763;48.130;11.602;2022-08-25T15:34:44;27.20;93.20
37938;DHT22;23763;48.130;11.602;2022-08-25T15:37:13;27.20;93.30
37938;DHT22;23763;48.130;11.602;2022-08-25T15:39:41;27.20;93.50
37938;DHT22;23763;48.130;11.602;2022-08-25T15:42:08;27.30;93.50
37938;DHT22;23763;48.130;11.602;2022-08-25T15:44:34;27.30;93.30
37938;DHT22;23763;48.130;11.602;2022-08-25T15:47:00;27.40;93.10
37938;DHT22;23763;48.130;11.602;2022-08-25T15:49:26;27.40;93.10
37938;DHT22;23763;48.130;11.602;2022-08-25T15:51:53;27.50;92.90
37938;DHT22;23763;48.130;11.602;2022-08-25T15:54:20;27.50;92.90
37938;DHT22;23763;48.130;11.602;2022-08-25T15:56:46;27.40;92.90
37938;DHT22;23763;48.130;11.602;2022-08-25T15:59:12;27.20;92.90
37938;DHT22;23763;48.130;11.602;2022-08-25T16:01:39;27.20;93.10
37938;DHT22;23763;48.130;11.602;2022-08-25T16:04:05;27.20;93.30
37938;DHT22;23763;48.130;11.602;2022-08-25T16:06:31;27.20;93.30
37938;DHT22;23763;48.130;11.602;2022-08-25T16:08:59;27.30;93.40
37938;DHT22;23763;48.130;11.602;2022-08-25T16:11:30;27.20;93.50
37938;DHT22;23763;48.130;11.602;2022-08-25T16:13:56;27.40;93.40
37938;DHT22;23763;48.130;11.602;2022-08-25T16:16:24;27.40;93.50
37938;DHT22;23763;48.130;11.602;2022-08-25T16:18:50;27.30;93.50
37938;DHT22;23763;48.130;11.602;2022-08-25T16:21:20;27.10;93.70
37938;DHT22;23763;48.130;11.602;2022-08-25T16:23:49;27.10;94.10
37938;DHT22;23763;48.130;11.602;2022-08-25T16:26:16;27.10;94.20
37938;DHT22;23763;48.130;11.602;2022-08-25T16:28:43;27.10;93.50
37938;DHT22;23763;48.130;11.602;2022-08-25T16:31:10;27.00;93.50
37938;DHT22;23763;48.130;11.602;2022-08-25T16:33:37;26.90;93.50
37938;DHT22;23763;48.130;11.602;2022-08-25T16:36:07;26.80;93.60
37938;DHT22;23763;48.130;11.602;2022-08-25T16:38:34;26.70;93.70
37938;DHT22;23763;48.130;11.602;2022-08-25T16:41:04;26.60;93.70
37938;DHT22;23763;48.130;11.602;2022-08-25T16:43:30;26.50;93.70
37938;DHT22;23763;48.130;11.602;2022-08-25T16:46:00;26.40;93.90
37938;DHT22;23763;48.130;11.602;2022-08-25T16:48:27;26.40;93.90
37938;DHT22;23763;48.130;11.602;2022-08-25T16:50:53;26.30;94.00
37938;DHT22;23763;48.130;11.602;2022-08-25T16:53:19;26.30;94.20
37938;DHT22;23763;48.130;11.602;2022-08-25T16:56:04;26.20;94.50
37938;DHT22;23763;48.130;11.602;2022-08-25T16:58:30;26.10;95.00
37938;DHT22;23763;48.130;11.602;2022-08-25T17:01:08;26.00;95.10
37938;DHT22;23763;48.130;11.602;2022-08-25T17:03:37;25.90;95.40
37938;DHT22;23763;48.130;11.602;2022-08-25T17:06:04;25.90;95.70
37938;DHT22;23763;48.130;11.602;2022-08-25T17:08:30;25.80;95.90
37938;DHT22;23763;48.130;11.602;2022-08-25T17:11:14;25.70;96.20
37938;DHT22;23763;48.130;11.602;2022-08-25T17:13:43;25.60;96.20
37938;DHT22;23763;48.130;11.602;2022-08-25T17:16:10;25.60;96.40
37938;DHT22;23763;48.130;11.602;2022-08-25T17:18:38;25.60;96.50
37938;DHT22;23763;48.130;11.602;2022-08-25T17:21:07;25.50;96.60
37938;DHT22;23763;48.130;11.602;2022-08-25T17:23:34;25.50;96.70
37938;DHT22;23763;48.130;11.602;2022-08-25T17:26:00;25.40;96.90
37938;DHT22;23763;48.130;11.602;2022-08-25T17:28:26;25.40;97.00
37938;DHT22;23763;48.130;11.602;2022-08-25T17:30:53;25.40;97.10
37938;DHT22;23763;48.130;11.602;2022-08-25T17:33:19;25.40;97.10
37938;DHT22;23763;48.130;11.602;2022-08-25T17:35:48;25.40;97.20
37938;DHT22;23763;48.130;11.602;2022-08-25T17:38:15;25.40;97.40